Airport View

Enter AWOS ICAO identifier for current METAR.

ex. KFNL

KPLR 022350Z AUTO 20003KT 10SM CLR 28/24 A3009 RMK A01

2 Jun 2020 23:54

Frequency: 119.625

Phone: (205) 884-4359

Other Area AWOS: KASN - KANB - KSCD - KBHM

TAF KANB 021720Z 0218/0318 18006KT P6SM SCT045 FM022300 VRB04KT P6SM SCT250 FM031600 24005KT P6SM BKN150